sensor_id;sensor_type;location;lat;lon;timestamp;temperature;humidity
1175;DHT22;576;48.418;10.074;2023-02-28T00:01:29;21.20;51.50
1175;DHT22;576;48.418;10.074;2023-02-28T00:03:58;21.20;51.50
1175;DHT22;576;48.418;10.074;2023-02-28T00:06:26;21.20;51.50
1175;DHT22;576;48.418;10.074;2023-02-28T00:08:55;21.20;51.50
1175;DHT22;576;48.418;10.074;2023-02-28T00:11:23;21.20;51.50
1175;DHT22;576;48.418;10.074;2023-02-28T00:13:52;21.20;51.50
1175;DHT22;576;48.418;10.074;2023-02-28T00:16:22;21.20;51.40
1175;DHT22;576;48.418;10.074;2023-02-28T00:18:50;21.20;51.40
1175;DHT22;576;48.418;10.074;2023-02-28T00:21:19;21.20;51.40
1175;DHT22;576;48.418;10.074;2023-02-28T00:23:47;21.20;51.40
1175;DHT22;576;48.418;10.074;2023-02-28T00:26:15;21.20;51.50
1175;DHT22;576;48.418;10.074;2023-02-28T00:28:47;21.20;51.50
1175;DHT22;576;48.418;10.074;2023-02-28T00:31:17;21.20;51.50
1175;DHT22;576;48.418;10.074;2023-02-28T00:33:47;21.10;51.50
1175;DHT22;576;48.418;10.074;2023-02-28T00:36:15;21.10;51.50
1175;DHT22;576;48.418;10.074;2023-02-28T00:38:43;21.10;51.50
1175;DHT22;576;48.418;10.074;2023-02-28T00:41:12;21.10;51.50
1175;DHT22;576;48.418;10.074;2023-02-28T00:43:40;21.10;51.50
1175;DHT22;576;48.418;10.074;2023-02-28T00:46:10;21.10;51.50
1175;DHT22;576;48.418;10.074;2023-02-28T00:48:40;21.10;51.50
1175;DHT22;576;48.418;10.074;2023-02-28T00:51:08;21.10;51.50
1175;DHT22;576;48.418;10.074;2023-02-28T00:53:36;21.10;51.60
1175;DHT22;576;48.418;10.074;2023-02-28T00:56:05;21.10;51.60
1175;DHT22;576;48.418;10.074;2023-02-28T00:58:33;21.00;51.60
1175;DHT22;576;48.418;10.074;2023-02-28T01:01:01;21.10;51.50
1175;DHT22;576;48.418;10.074;2023-02-28T01:03:30;21.10;51.60
1175;DHT22;576;48.418;10.074;2023-02-28T01:05:59;21.10;51.60
1175;DHT22;576;48.418;10.074;2023-02-28T01:08:28;21.10;51.60
1175;DHT22;576;48.418;10.074;2023-02-28T01:10:56;21.10;51.60
1175;DHT22;576;48.418;10.074;2023-02-28T01:13:24;21.10;51.60
1175;DHT22;576;48.418;10.074;2023-02-28T01:15:55;21.00;51.60
1175;DHT22;576;48.418;10.074;2023-02-28T01:18:24;21.10;51.60
1175;DHT22;576;48.418;10.074;2023-02-28T01:20:52;21.10;51.50
1175;DHT22;576;48.418;10.074;2023-02-28T01:23:22;21.10;51.50
1175;DHT22;576;48.418;10.074;2023-02-28T01:25:51;21.10;51.50
1175;DHT22;576;48.418;10.074;2023-02-28T01:28:19;21.10;51.50
1175;DHT22;576;48.418;10.074;2023-02-28T01:30:48;21.10;51.50
1175;DHT22;576;48.418;10.074;2023-02-28T01:33:17;21.10;51.50
1175;DHT22;576;48.418;10.074;2023-02-28T01:35:45;21.10;51.50
1175;DHT22;576;48.418;10.074;2023-02-28T01:38:13;21.10;51.40
1175;DHT22;576;48.418;10.074;2023-02-28T01:40:50;21.10;51.40
1175;DHT22;576;48.418;10.074;2023-02-28T01:43:25;21.10;51.30
1175;DHT22;576;48.418;10.074;2023-02-28T01:45:55;21.10;51.30
1175;DHT22;576;48.418;10.074;2023-02-28T01:48:26;21.10;51.30
1175;DHT22;576;48.418;10.074;2023-02-28T01:50:58;21.10;51.30
1175;DHT22;576;48.418;10.074;2023-02-28T01:53:30;21.10;51.30
1175;DHT22;576;48.418;10.074;2023-02-28T01:56:04;21.10;51.30
1175;DHT22;576;48.418;10.074;2023-02-28T01:58:34;21.10;51.30
1175;DHT22;576;48.418;10.074;2023-02-28T02:01:03;21.10;51.20
1175;DHT22;576;48.418;10.074;2023-02-28T02:03:32;21.10;51.20
1175;DHT22;576;48.418;10.074;2023-02-28T02:06:03;21.10;51.20
1175;DHT22;576;48.418;10.074;2023-02-28T02:08:32;21.10;51.20
1175;DHT22;576;48.418;10.074;2023-02-28T02:11:01;21.10;51.20
1175;DHT22;576;48.418;10.074;2023-02-28T02:16:35;21.10;51.20
1175;DHT22;576;48.418;10.074;2023-02-28T02:19:19;21.10;51.20
1175;DHT22;576;48.418;10.074;2023-02-28T02:25:12;21.10;51.20
1175;DHT22;576;48.418;10.074;2023-02-28T02:28:02;21.10;51.20
1175;DHT22;576;48.418;10.074;2023-02-28T02:30:49;21.10;51.20
1175;DHT22;576;48.418;10.074;2023-02-28T02:33:45;21.10;51.20
1175;DHT22;576;48.418;10.074;2023-02-28T02:36:24;21.10;51.20
1175;DHT22;576;48.418;10.074;2023-02-28T02:39:00;21.00;51.20
1175;DHT22;576;48.418;10.074;2023-02-28T02:41:35;21.00;51.20
1175;DHT22;576;48.418;10.074;2023-02-28T02:44:10;21.00;51.20
1175;DHT22;576;48.418;10.074;2023-02-28T02:46:42;21.00;51.20
1175;DHT22;576;48.418;10.074;2023-02-28T02:49:16;21.00;51.20
1175;DHT22;576;48.418;10.074;2023-02-28T02:51:49;21.00;51.10
1175;DHT22;576;48.418;10.074;2023-02-28T02:54:22;21.00;51.10
1175;DHT22;576;48.418;10.074;2023-02-28T02:56:58;21.00;51.10
1175;DHT22;576;48.418;10.074;2023-02-28T02:59:28;21.00;51.10
1175;DHT22;576;48.418;10.074;2023-02-28T03:01:59;21.00;51.10
1175;DHT22;576;48.418;10.074;2023-02-28T03:04:33;21.00;51.10
1175;DHT22;576;48.418;10.074;2023-02-28T03:07:04;21.00;51.10
1175;DHT22;576;48.418;10.074;2023-02-28T03:09:34;21.00;51.00
1175;DHT22;576;48.418;10.074;2023-02-28T03:12:04;21.00;51.00
1175;DHT22;576;48.418;10.074;2023-02-28T03:14:46;21.00;51.00
1175;DHT22;576;48.418;10.074;2023-02-28T03:17:24;21.00;51.00
1175;DHT22;576;48.418;10.074;2023-02-28T03:20:04;21.00;51.00
1175;DHT22;576;48.418;10.074;2023-02-28T03:22:49;21.00;51.00
1175;DHT22;576;48.418;10.074;2023-02-28T03:25:29;21.00;51.00
1175;DHT22;576;48.418;10.074;2023-02-28T03:28:03;21.00;51.00
1175;DHT22;576;48.418;10.074;2023-02-28T03:30:39;21.00;51.00
1175;DHT22;576;48.418;10.074;2023-02-28T03:33:12;21.00;51.00
1175;DHT22;576;48.418;10.074;2023-02-28T03:35:45;21.00;51.00
1175;DHT22;576;48.418;10.074;2023-02-28T03:38:19;21.00;50.90
1175;DHT22;576;48.418;10.074;2023-02-28T03:40:50;21.00;50.90
1175;DHT22;576;48.418;10.074;2023-02-28T03:43:23;21.00;50.90
1175;DHT22;576;48.418;10.074;2023-02-28T03:45:55;21.00;50.90
1175;DHT22;576;48.418;10.074;2023-02-28T03:48:28;21.00;50.90
1175;DHT22;576;48.418;10.074;2023-02-28T03:50:59;21.00;50.90
1175;DHT22;576;48.418;10.074;2023-02-28T03:53:33;21.00;50.90
1175;DHT22;576;48.418;10.074;2023-02-28T03:56:07;21.00;50.90
1175;DHT22;576;48.418;10.074;2023-02-28T03:58:42;21.00;50.80
1175;DHT22;576;48.418;10.074;2023-02-28T04:01:15;21.00;50.80
1175;DHT22;576;48.418;10.074;2023-02-28T04:03:45;21.00;50.80
1175;DHT22;576;48.418;10.074;2023-02-28T04:06:16;21.00;50.80
1175;DHT22;576;48.418;10.074;2023-02-28T04:08:47;21.00;50.80
1175;DHT22;576;48.418;10.074;2023-02-28T04:11:21;21.00;50.80
1175;DHT22;576;48.418;10.074;2023-02-28T04:13:50;21.00;50.80
1175;DHT22;576;48.418;10.074;2023-02-28T04:16:18;21.00;50.70
1175;DHT22;576;48.418;10.074;2023-02-28T04:19:00;21.00;50.70
1175;DHT22;576;48.418;10.074;2023-02-28T04:21:31;21.00;50.70
1175;DHT22;576;48.418;10.074;2023-02-28T04:24:01;21.00;50.70
1175;DHT22;576;48.418;10.074;2023-02-28T04:26:30;21.00;50.70
1175;DHT22;576;48.418;10.074;2023-02-28T04:28:59;21.00;50.70
1175;DHT22;576;48.418;10.074;2023-02-28T04:31:27;21.00;50.70
1175;DHT22;576;48.418;10.074;2023-02-28T04:33:56;21.00;50.60
1175;DHT22;576;48.418;10.074;2023-02-28T04:36:24;21.00;50.60
1175;DHT22;576;48.418;10.074;2023-02-28T04:38:52;21.00;50.70
1175;DHT22;576;48.418;10.074;2023-02-28T04:41:22;21.00;50.60
1175;DHT22;576;48.418;10.074;2023-02-28T04:43:51;21.00;50.70
1175;DHT22;576;48.418;10.074;2023-02-28T04:46:19;21.00;50.60
1175;DHT22;576;48.418;10.074;2023-02-28T04:48:48;21.00;50.60
1175;DHT22;576;48.418;10.074;2023-02-28T04:51:18;21.00;50.60
1175;DHT22;576;48.418;10.074;2023-02-28T04:53:47;21.00;50.60
1175;DHT22;576;48.418;10.074;2023-02-28T04:56:17;21.00;50.60
1175;DHT22;576;48.418;10.074;2023-02-28T04:58:47;21.00;50.60
1175;DHT22;576;48.418;10.074;2023-02-28T05:01:18;21.00;50.60
1175;DHT22;576;48.418;10.074;2023-02-28T05:03:47;21.00;50.60
1175;DHT22;576;48.418;10.074;2023-02-28T05:06:16;21.00;50.60
1175;DHT22;576;48.418;10.074;2023-02-28T05:08:44;21.00;50.60
1175;DHT22;576;48.418;10.074;2023-02-28T05:11:19;21.00;50.60
1175;DHT22;576;48.418;10.074;2023-02-28T05:13:49;21.00;50.60
1175;DHT22;576;48.418;10.074;2023-02-28T05:16:18;21.00;50.50
1175;DHT22;576;48.418;10.074;2023-02-28T05:18:47;21.00;50.50
1175;DHT22;576;48.418;10.074;2023-02-28T05:21:24;21.00;50.50
1175;DHT22;576;48.418;10.074;2023-02-28T05:23:54;21.00;50.60
1175;DHT22;576;48.418;10.074;2023-02-28T05:26:23;21.00;50.60
1175;DHT22;576;48.418;10.074;2023-02-28T05:28:53;21.00;50.60
1175;DHT22;576;48.418;10.074;2023-02-28T05:31:22;21.00;50.60
1175;DHT22;576;48.418;10.074;2023-02-28T05:33:50;21.00;50.60
1175;DHT22;576;48.418;10.074;2023-02-28T05:36:19;21.00;50.60
1175;DHT22;576;48.418;10.074;2023-02-28T05:38:47;21.00;50.60
1175;DHT22;576;48.418;10.074;2023-02-28T05:41:17;21.00;50.70
1175;DHT22;576;48.418;10.074;2023-02-28T05:43:46;21.00;50.70
1175;DHT22;576;48.418;10.074;2023-02-28T05:46:16;21.00;50.70
1175;DHT22;576;48.418;10.074;2023-02-28T05:48:46;21.00;50.80
1175;DHT22;576;48.418;10.074;2023-02-28T05:51:16;21.00;50.80
1175;DHT22;576;48.418;10.074;2023-02-28T05:53:44;21.00;50.80
1175;DHT22;576;48.418;10.074;2023-02-28T05:56:12;21.00;50.80
1175;DHT22;576;48.418;10.074;2023-02-28T05:58:41;21.00;50.80
1175;DHT22;576;48.418;10.074;2023-02-28T06:01:33;21.00;50.90
1175;DHT22;576;48.418;10.074;2023-02-28T06:04:04;21.00;50.90
1175;DHT22;576;48.418;10.074;2023-02-28T06:06:32;21.00;50.90
1175;DHT22;576;48.418;10.074;2023-02-28T06:09:03;21.00;50.90
1175;DHT22;576;48.418;10.074;2023-02-28T06:11:32;21.00;50.90
1175;DHT22;576;48.418;10.074;2023-02-28T06:14:01;21.00;50.90
1175;DHT22;576;48.418;10.074;2023-02-28T06:16:32;21.00;50.90
1175;DHT22;576;48.418;10.074;2023-02-28T06:19:02;21.00;50.90
1175;DHT22;576;48.418;10.074;2023-02-28T06:21:31;20.90;50.90
1175;DHT22;576;48.418;10.074;2023-02-28T06:23:59;20.90;51.00
1175;DHT22;576;48.418;10.074;2023-02-28T06:26:27;20.90;51.00
1175;DHT22;576;48.418;10.074;2023-02-28T06:28:55;20.90;51.00
1175;DHT22;576;48.418;10.074;2023-02-28T06:31:23;20.90;51.10
1175;DHT22;576;48.418;10.074;2023-02-28T06:33:55;20.90;51.10
1175;DHT22;576;48.418;10.074;2023-02-28T06:36:23;20.90;51.10
1175;DHT22;576;48.418;10.074;2023-02-28T06:38:51;20.80;51.10
1175;DHT22;576;48.418;10.074;2023-02-28T06:41:22;20.80;51.10
1175;DHT22;576;48.418;10.074;2023-02-28T06:43:51;20.80;51.10
1175;DHT22;576;48.418;10.074;2023-02-28T06:46:19;20.80;51.10
1175;DHT22;576;48.418;10.074;2023-02-28T06:48:48;20.80;51.10
1175;DHT22;576;48.418;10.074;2023-02-28T06:51:19;20.90;51.10
1175;DHT22;576;48.418;10.074;2023-02-28T06:53:49;20.80;51.10
1175;DHT22;576;48.418;10.074;2023-02-28T06:56:18;20.90;51.20
1175;DHT22;576;48.418;10.074;2023-02-28T06:58:47;20.90;51.20
1175;DHT22;576;48.418;10.074;2023-02-28T07:01:16;20.90;51.20
1175;DHT22;576;48.418;10.074;2023-02-28T07:03:44;20.90;51.20
1175;DHT22;576;48.418;10.074;2023-02-28T07:06:13;20.90;51.20
1175;DHT22;576;48.418;10.074;2023-02-28T07:08:46;20.90;51.20
1175;DHT22;576;48.418;10.074;2023-02-28T07:11:14;21.00;51.20
1175;DHT22;576;48.418;10.074;2023-02-28T07:13:42;21.00;51.10
1175;DHT22;576;48.418;10.074;2023-02-28T07:16:11;21.00;51.40
1175;DHT22;576;48.418;10.074;2023-02-28T07:18:39;21.00;51.90
1175;DHT22;576;48.418;10.074;2023-02-28T07:21:09;21.00;52.30
1175;DHT22;576;48.418;10.074;2023-02-28T07:23:37;21.10;52.60
1175;DHT22;576;48.418;10.074;2023-02-28T07:26:10;21.10;52.90
1175;DHT22;576;48.418;10.074;2023-02-28T07:28:39;21.10;53.30
1175;DHT22;576;48.418;10.074;2023-02-28T07:31:10;21.10;53.50
1175;DHT22;576;48.418;10.074;2023-02-28T07:33:38;21.20;53.60
1175;DHT22;576;48.418;10.074;2023-02-28T07:36:09;21.20;53.70
1175;DHT22;576;48.418;10.074;2023-02-28T07:38:41;21.20;53.70
1175;DHT22;576;48.418;10.074;2023-02-28T07:41:15;21.20;53.80
1175;DHT22;576;48.418;10.074;2023-02-28T07:43:43;21.20;53.80
1175;DHT22;576;48.418;10.074;2023-02-28T07:46:14;21.20;53.90
1175;DHT22;576;48.418;10.074;2023-02-28T07:48:43;21.20;53.90
1175;DHT22;576;48.418;10.074;2023-02-28T07:51:12;21.20;53.90
1175;DHT22;576;48.418;10.074;2023-02-28T07:53:40;21.20;53.90
1175;DHT22;576;48.418;10.074;2023-02-28T07:56:08;21.20;53.90
1175;DHT22;576;48.418;10.074;2023-02-28T07:58:38;21.20;53.90
1175;DHT22;576;48.418;10.074;2023-02-28T08:01:07;21.20;53.80
1175;DHT22;576;48.418;10.074;2023-02-28T08:03:36;21.20;53.80
1175;DHT22;576;48.418;10.074;2023-02-28T08:06:07;21.30;53.70
1175;DHT22;576;48.418;10.074;2023-02-28T08:08:35;21.30;53.70
1175;DHT22;576;48.418;10.074;2023-02-28T08:11:04;21.30;53.60
1175;DHT22;576;48.418;10.074;2023-02-28T08:13:32;21.30;53.50
1175;DHT22;576;48.418;10.074;2023-02-28T08:16:02;21.30;53.50
1175;DHT22;576;48.418;10.074;2023-02-28T08:18:31;21.40;53.20
1175;DHT22;576;48.418;10.074;2023-02-28T08:21:06;21.40;53.00
1175;DHT22;576;48.418;10.074;2023-02-28T08:23:34;21.40;52.80
1175;DHT22;576;48.418;10.074;2023-02-28T08:26:03;21.40;52.70
1175;DHT22;576;48.418;10.074;2023-02-28T08:28:31;21.40;52.80
1175;DHT22;576;48.418;10.074;2023-02-28T08:31:01;21.40;52.70
1175;DHT22;576;48.418;10.074;2023-02-28T08:33:34;21.40;52.50
1175;DHT22;576;48.418;10.074;2023-02-28T08:36:03;21.40;52.50
1175;DHT22;576;48.418;10.074;2023-02-28T08:38:32;21.40;52.30
1175;DHT22;576;48.418;10.074;2023-02-28T08:41:01;21.40;52.30
1175;DHT22;576;48.418;10.074;2023-02-28T08:43:29;21.50;52.30
1175;DHT22;576;48.418;10.074;2023-02-28T08:45:58;21.50;52.20
1175;DHT22;576;48.418;10.074;2023-02-28T08:48:28;21.50;52.20
1175;DHT22;576;48.418;10.074;2023-02-28T08:50:57;21.50;52.20
1175;DHT22;576;48.418;10.074;2023-02-28T08:53:34;21.50;52.20
1175;DHT22;576;48.418;10.074;2023-02-28T08:56:04;21.50;52.20
1175;DHT22;576;48.418;10.074;2023-02-28T08:58:33;21.60;52.10
1175;DHT22;576;48.418;10.074;2023-02-28T09:01:08;21.60;52.10
1175;DHT22;576;48.418;10.074;2023-02-28T09:03:37;21.60;52.00
1175;DHT22;576;48.418;10.074;2023-02-28T09:06:06;21.60;52.00
1175;DHT22;576;48.418;10.074;2023-02-28T09:08:35;21.60;52.00
1175;DHT22;576;48.418;10.074;2023-02-28T09:11:04;21.60;51.90
1175;DHT22;576;48.418;10.074;2023-02-28T09:13:32;21.70;51.90
1175;DHT22;576;48.418;10.074;2023-02-28T09:16:02;21.70;51.90
1175;DHT22;576;48.418;10.074;2023-02-28T09:18:31;21.60;51.90
1175;DHT22;576;48.418;10.074;2023-02-28T09:21:03;21.60;51.90
1175;DHT22;576;48.418;10.074;2023-02-28T09:23:31;21.70;51.80
1175;DHT22;576;48.418;10.074;2023-02-28T09:25:59;21.60;51.80
1175;DHT22;576;48.418;10.074;2023-02-28T09:28:27;21.60;51.80
1175;DHT22;576;48.418;10.074;2023-02-28T09:30:55;21.60;51.90
1175;DHT22;576;48.418;10.074;2023-02-28T09:33:26;21.60;51.80
1175;DHT22;576;48.418;10.074;2023-02-28T09:36:00;21.60;51.80
1175;DHT22;576;48.418;10.074;2023-02-28T09:38:28;21.60;51.90
1175;DHT22;576;48.418;10.074;2023-02-28T09:40:58;21.60;51.80
1175;DHT22;576;48.418;10.074;2023-02-28T09:43:30;21.60;51.80
1175;DHT22;576;48.418;10.074;2023-02-28T09:46:05;21.60;51.90
1175;DHT22;576;48.418;10.074;2023-02-28T09:48:42;21.60;51.90
1175;DHT22;576;48.418;10.074;2023-02-28T09:51:22;21.60;51.80
1175;DHT22;576;48.418;10.074;2023-02-28T09:53:55;21.60;51.70
1175;DHT22;576;48.418;10.074;2023-02-28T09:56:32;21.60;51.70
1175;DHT22;576;48.418;10.074;2023-02-28T09:59:04;21.70;51.50
1175;DHT22;576;48.418;10.074;2023-02-28T10:01:39;21.70;51.40
1175;DHT22;576;48.418;10.074;2023-02-28T10:04:14;21.70;51.40
1175;DHT22;576;48.418;10.074;2023-02-28T10:06:48;21.70;51.30
1175;DHT22;576;48.418;10.074;2023-02-28T10:09:19;21.80;51.30
1175;DHT22;576;48.418;10.074;2023-02-28T10:11:50;21.80;51.20
1175;DHT22;576;48.418;10.074;2023-02-28T10:14:25;21.80;51.20
1175;DHT22;576;48.418;10.074;2023-02-28T10:16:56;21.80;51.20
1175;DHT22;576;48.418;10.074;2023-02-28T10:19:28;21.80;51.10
1175;DHT22;576;48.418;10.074;2023-02-28T10:22:03;21.90;51.00
1175;DHT22;576;48.418;10.074;2023-02-28T10:24:35;21.90;51.00
1175;DHT22;576;48.418;10.074;2023-02-28T10:27:13;21.90;50.90
1175;DHT22;576;48.418;10.074;2023-02-28T10:29:44;22.00;50.90
1175;DHT22;576;48.418;10.074;2023-02-28T10:32:16;22.00;50.80
1175;DHT22;576;48.418;10.074;2023-02-28T10:34:45;22.00;50.70
1175;DHT22;576;48.418;10.074;2023-02-28T10:37:15;22.00;50.60
1175;DHT22;576;48.418;10.074;2023-02-28T10:39:45;22.00;50.50
1175;DHT22;576;48.418;10.074;2023-02-28T10:42:23;22.10;50.40
1175;DHT22;576;48.418;10.074;2023-02-28T10:45:07;22.10;50.30
1175;DHT22;576;48.418;10.074;2023-02-28T10:47:48;22.10;50.20
1175;DHT22;576;48.418;10.074;2023-02-28T10:50:42;22.20;50.10
1175;DHT22;576;48.418;10.074;2023-02-28T10:53:30;22.20;50.00
1175;DHT22;576;48.418;10.074;2023-02-28T10:56:16;22.20;50.00
1175;DHT22;576;48.418;10.074;2023-02-28T10:58:54;22.20;50.20
1175;DHT22;576;48.418;10.074;2023-02-28T11:01:25;22.30;50.10
1175;DHT22;576;48.418;10.074;2023-02-28T11:08:05;22.30;50.10
1175;DHT22;576;48.418;10.074;2023-02-28T11:10:36;22.30;50.10
1175;DHT22;576;48.418;10.074;2023-02-28T11:13:05;22.30;50.10
1175;DHT22;576;48.418;10.074;2023-02-28T11:15:34;22.30;50.10
1175;DHT22;576;48.418;10.074;2023-02-28T11:18:06;22.30;50.10
1175;DHT22;576;48.418;10.074;2023-02-28T11:20:49;22.30;50.10
1175;DHT22;576;48.418;10.074;2023-02-28T11:23:19;22.30;50.10
1175;DHT22;576;48.418;10.074;2023-02-28T11:25:51;22.40;50.10
1175;DHT22;576;48.418;10.074;2023-02-28T11:28:27;22.40;50.00
1175;DHT22;576;48.418;10.074;2023-02-28T11:31:05;22.40;50.00
1175;DHT22;576;48.418;10.074;2023-02-28T11:33:41;22.40;50.00
1175;DHT22;576;48.418;10.074;2023-02-28T11:36:13;22.40;49.90
1175;DHT22;576;48.418;10.074;2023-02-28T11:38:43;22.50;49.90
1175;DHT22;576;48.418;10.074;2023-02-28T11:41:27;22.50;49.80
1175;DHT22;576;48.418;10.074;2023-02-28T11:44:15;22.50;49.80
1175;DHT22;576;48.418;10.074;2023-02-28T11:46:50;22.50;49.70
1175;DHT22;576;48.418;10.074;2023-02-28T11:49:31;22.60;49.70
1175;DHT22;576;48.418;10.074;2023-02-28T11:52:06;22.60;49.60
1175;DHT22;576;48.418;10.074;2023-02-28T11:55:01;22.70;49.50
1175;DHT22;576;48.418;10.074;2023-02-28T11:57:53;22.90;49.20
1175;DHT22;576;48.418;10.074;2023-02-28T12:00:36;23.10;49.00
1175;DHT22;576;48.418;10.074;2023-02-28T12:03:16;23.20;48.80
1175;DHT22;576;48.418;10.074;2023-02-28T12:05:56;23.40;48.80
1175;DHT22;576;48.418;10.074;2023-02-28T12:08:34;23.40;48.60
1175;DHT22;576;48.418;10.074;2023-02-28T12:11:10;23.60;48.30
1175;DHT22;576;48.418;10.074;2023-02-28T12:13:50;23.60;48.20
1175;DHT22;576;48.418;10.074;2023-02-28T12:16:45;23.70;48.00
1175;DHT22;576;48.418;10.074;2023-02-28T12:19:20;23.80;47.70
1175;DHT22;576;48.418;10.074;2023-02-28T12:22:01;23.90;47.70
1175;DHT22;576;48.418;10.074;2023-02-28T12:24:48;23.90;47.40
1175;DHT22;576;48.418;10.074;2023-02-28T12:27:23;24.00;47.20
1175;DHT22;576;48.418;10.074;2023-02-28T12:29:58;24.10;47.10
1175;DHT22;576;48.418;10.074;2023-02-28T12:32:30;24.10;47.10
1175;DHT22;576;48.418;10.074;2023-02-28T12:35:03;24.10;47.00
1175;DHT22;576;48.418;10.074;2023-02-28T12:37:38;24.20;47.00
1175;DHT22;576;48.418;10.074;2023-02-28T12:40:13;24.20;46.90
1175;DHT22;576;48.418;10.074;2023-02-28T12:42:45;24.20;46.90
1175;DHT22;576;48.418;10.074;2023-02-28T12:45:19;24.10;47.10
1175;DHT22;576;48.418;10.074;2023-02-28T12:47:52;24.00;47.20
1175;DHT22;576;48.418;10.074;2023-02-28T12:50:23;24.00;47.40
1175;DHT22;576;48.418;10.074;2023-02-28T12:52:58;23.90;47.40
1175;DHT22;576;48.418;10.074;2023-02-28T12:55:32;23.90;47.50
1175;DHT22;576;48.418;10.074;2023-02-28T12:58:07;23.90;47.40
1175;DHT22;576;48.418;10.074;2023-02-28T13:00:50;24.00;47.30
1175;DHT22;576;48.418;10.074;2023-02-28T13:03:37;24.00;47.20
1175;DHT22;576;48.418;10.074;2023-02-28T13:06:34;24.00;47.40
1175;DHT22;576;48.418;10.074;2023-02-28T13:09:11;23.80;47.60
1175;DHT22;576;48.418;10.074;2023-02-28T13:11:44;23.80;47.70
1175;DHT22;576;48.418;10.074;2023-02-28T13:14:28;23.80;47.70
1175;DHT22;576;48.418;10.074;2023-02-28T13:17:03;23.70;47.70
1175;DHT22;576;48.418;10.074;2023-02-28T13:19:40;23.70;47.70
1175;DHT22;576;48.418;10.074;2023-02-28T13:22:18;23.70;47.90
1175;DHT22;576;48.418;10.074;2023-02-28T13:24:48;23.70;48.00
1175;DHT22;576;48.418;10.074;2023-02-28T13:27:34;23.70;47.90
1175;DHT22;576;48.418;10.074;2023-02-28T13:33:26;23.70;48.00
1175;DHT22;576;48.418;10.074;2023-02-28T13:36:08;23.80;48.30
1175;DHT22;576;48.418;10.074;2023-02-28T13:38:39;23.90;48.40
1175;DHT22;576;48.418;10.074;2023-02-28T13:41:45;23.90;48.50
1175;DHT22;576;48.418;10.074;2023-02-28T13:44:15;24.00;48.50
1175;DHT22;576;48.418;10.074;2023-02-28T13:47:20;24.00;48.60
1175;DHT22;576;48.418;10.074;2023-02-28T13:49:51;24.10;48.70
1175;DHT22;576;48.418;10.074;2023-02-28T13:52:22;24.10;48.80
1175;DHT22;576;48.418;10.074;2023-02-28T13:55:24;24.10;48.90
1175;DHT22;576;48.418;10.074;2023-02-28T14:01:05;24.10;49.00
1175;DHT22;576;48.418;10.074;2023-02-28T14:03:59;24.10;49.20
1175;DHT22;576;48.418;10.074;2023-02-28T14:06:32;24.10;49.30
1175;DHT22;576;48.418;10.074;2023-02-28T14:09:03;24.10;49.30
1175;DHT22;576;48.418;10.074;2023-02-28T14:11:36;24.10;49.30
1175;DHT22;576;48.418;10.074;2023-02-28T14:14:08;24.10;49.40
1175;DHT22;576;48.418;10.074;2023-02-28T14:16:39;24.10;49.60
1175;DHT22;576;48.418;10.074;2023-02-28T14:19:14;24.10;49.70
1175;DHT22;576;48.418;10.074;2023-02-28T14:21:56;24.10;49.60
1175;DHT22;576;48.418;10.074;2023-02-28T14:24:52;24.00;49.70
1175;DHT22;576;48.418;10.074;2023-02-28T14:27:35;24.00;49.80
1175;DHT22;576;48.418;10.074;2023-02-28T14:30:40;23.90;50.00
1175;DHT22;576;48.418;10.074;2023-02-28T14:33:23;23.90;50.00
1175;DHT22;576;48.418;10.074;2023-02-28T14:36:01;23.90;50.10
1175;DHT22;576;48.418;10.074;2023-02-28T14:38:36;23.90;50.30
1175;DHT22;576;48.418;10.074;2023-02-28T14:41:14;23.90;50.40
1175;DHT22;576;48.418;10.074;2023-02-28T14:43:52;23.90;50.40
1175;DHT22;576;48.418;10.074;2023-02-28T14:46:21;24.00;50.40
1175;DHT22;576;48.418;10.074;2023-02-28T14:48:50;23.90;50.40
1175;DHT22;576;48.418;10.074;2023-02-28T14:51:20;23.90;50.40
1175;DHT22;576;48.418;10.074;2023-02-28T14:54:01;23.90;50.50
1175;DHT22;576;48.418;10.074;2023-02-28T14:56:34;23.90;50.60
1175;DHT22;576;48.418;10.074;2023-02-28T14:59:03;23.90;50.60
1175;DHT22;576;48.418;10.074;2023-02-28T15:01:32;23.90;50.60
1175;DHT22;576;48.418;10.074;2023-02-28T15:04:02;23.90;50.60
1175;DHT22;576;48.418;10.074;2023-02-28T15:06:31;23.90;50.60
1175;DHT22;576;48.418;10.074;2023-02-28T15:09:17;23.90;50.70
1175;DHT22;576;48.418;10.074;2023-02-28T15:11:47;23.90;50.80
1175;DHT22;576;48.418;10.074;2023-02-28T15:14:20;23.90;50.90
1175;DHT22;576;48.418;10.074;2023-02-28T15:16:52;23.90;50.90
1175;DHT22;576;48.418;10.074;2023-02-28T15:19:25;23.90;50.90
1175;DHT22;576;48.418;10.074;2023-02-28T15:21:57;23.90;50.90
1175;DHT22;576;48.418;10.074;2023-02-28T15:24:35;23.90;50.90
1175;DHT22;576;48.418;10.074;2023-02-28T15:27:07;23.90;50.90
1175;DHT22;576;48.418;10.074;2023-02-28T15:29:43;23.80;51.00
1175;DHT22;576;48.418;10.074;2023-02-28T15:32:23;23.80;51.00
1175;DHT22;576;48.418;10.074;2023-02-28T15:34:52;23.90;51.00
1175;DHT22;576;48.418;10.074;2023-02-28T15:37:30;23.90;51.00
1175;DHT22;576;48.418;10.074;2023-02-28T15:40:13;23.90;51.10
1175;DHT22;576;48.418;10.074;2023-02-28T15:42:43;23.90;51.10
1175;DHT22;576;48.418;10.074;2023-02-28T15:45:32;23.90;51.60
1175;DHT22;576;48.418;10.074;2023-02-28T15:48:05;23.90;51.70
1175;DHT22;576;48.418;10.074;2023-02-28T15:50:40;23.90;51.70
1175;DHT22;576;48.418;10.074;2023-02-28T15:53:13;23.90;51.20
1175;DHT22;576;48.418;10.074;2023-02-28T15:55:43;23.80;51.30
1175;DHT22;576;48.418;10.074;2023-02-28T15:58:12;23.80;51.40
1175;DHT22;576;48.418;10.074;2023-02-28T16:00:43;23.80;51.00
1175;DHT22;576;48.418;10.074;2023-02-28T16:03:40;23.70;50.20
1175;DHT22;576;48.418;10.074;2023-02-28T16:06:33;23.70;49.70
1175;DHT22;576;48.418;10.074;2023-02-28T16:09:03;23.60;49.50
1175;DHT22;576;48.418;10.074;2023-02-28T16:11:36;23.50;49.60
1175;DHT22;576;48.418;10.074;2023-02-28T16:14:05;23.50;49.50
1175;DHT22;576;48.418;10.074;2023-02-28T16:16:33;23.40;49.60
1175;DHT22;576;48.418;10.074;2023-02-28T16:19:02;23.30;49.60
1175;DHT22;576;48.418;10.074;2023-02-28T16:21:30;23.20;49.60
1175;DHT22;576;48.418;10.074;2023-02-28T16:23:58;23.20;49.70
1175;DHT22;576;48.418;10.074;2023-02-28T16:26:26;23.10;49.70
1175;DHT22;576;48.418;10.074;2023-02-28T16:28:56;23.10;49.80
1175;DHT22;576;48.418;10.074;2023-02-28T16:31:25;23.00;49.80
1175;DHT22;576;48.418;10.074;2023-02-28T16:33:53;22.90;49.90
1175;DHT22;576;48.418;10.074;2023-02-28T16:36:24;22.90;50.00
1175;DHT22;576;48.418;10.074;2023-02-28T16:38:53;22.80;50.00
1175;DHT22;576;48.418;10.074;2023-02-28T16:41:25;22.80;50.10
1175;DHT22;576;48.418;10.074;2023-02-28T16:43:56;22.80;50.10
1175;DHT22;576;48.418;10.074;2023-02-28T16:46:30;22.70;50.20
1175;DHT22;576;48.418;10.074;2023-02-28T16:48:59;22.70;50.20
1175;DHT22;576;48.418;10.074;2023-02-28T16:51:27;22.70;50.20
1175;DHT22;576;48.418;10.074;2023-02-28T16:53:56;22.70;50.30
1175;DHT22;576;48.418;10.074;2023-02-28T16:56:25;22.70;50.20